sensor_id;sensor_type;location;lat;lon;timestamp;temperature;humidity
66708;DHT22;53622;0.000;0.000;2022-10-31T00:01:41;21.60;77.10
66708;DHT22;53622;0.000;0.000;2022-10-31T00:04:10;21.60;77.00
66708;DHT22;53622;0.000;0.000;2022-10-31T00:06:39;21.60;77.00
66708;DHT22;53622;0.000;0.000;2022-10-31T00:09:09;21.60;77.00
66708;DHT22;53622;0.000;0.000;2022-10-31T00:11:39;21.50;76.90
66708;DHT22;53622;0.000;0.000;2022-10-31T00:14:10;21.50;77.10
66708;DHT22;53622;0.000;0.000;2022-10-31T00:16:39;21.50;76.90
66708;DHT22;53622;0.000;0.000;2022-10-31T00:19:09;21.50;76.90
66708;DHT22;53622;0.000;0.000;2022-10-31T00:21:38;21.50;77.00
66708;DHT22;53622;0.000;0.000;2022-10-31T00:24:07;21.50;77.00
66708;DHT22;53622;0.000;0.000;2022-10-31T00:26:37;21.50;77.00
66708;DHT22;53622;0.000;0.000;2022-10-31T00:29:06;21.50;76.90
66708;DHT22;53622;0.000;0.000;2022-10-31T00:31:36;21.50;77.00
66708;DHT22;53622;0.000;0.000;2022-10-31T00:34:06;21.50;77.00
66708;DHT22;53622;0.000;0.000;2022-10-31T00:36:35;21.50;76.90
66708;DHT22;53622;0.000;0.000;2022-10-31T00:39:04;21.50;77.00
66708;DHT22;53622;0.000;0.000;2022-10-31T00:41:34;21.50;76.90
66708;DHT22;53622;0.000;0.000;2022-10-31T00:44:03;21.50;77.00
66708;DHT22;53622;0.000;0.000;2022-10-31T00:46:32;21.50;76.90
66708;DHT22;53622;0.000;0.000;2022-10-31T00:49:03;21.50;77.00
66708;DHT22;53622;0.000;0.000;2022-10-31T00:51:32;21.50;77.00
66708;DHT22;53622;0.000;0.000;2022-10-31T00:54:01;21.50;77.10
66708;DHT22;53622;0.000;0.000;2022-10-31T00:56:30;21.50;77.00
66708;DHT22;53622;0.000;0.000;2022-10-31T00:59:00;21.40;76.90
66708;DHT22;53622;0.000;0.000;2022-10-31T01:01:29;21.40;77.00
66708;DHT22;53622;0.000;0.000;2022-10-31T01:03:58;21.40;76.90
66708;DHT22;53622;0.000;0.000;2022-10-31T01:06:29;21.40;76.80
66708;DHT22;53622;0.000;0.000;2022-10-31T01:08:58;21.40;76.80
66708;DHT22;53622;0.000;0.000;2022-10-31T01:11:27;21.40;76.90
66708;DHT22;53622;0.000;0.000;2022-10-31T01:13:57;21.40;76.80
66708;DHT22;53622;0.000;0.000;2022-10-31T01:16:27;21.40;76.80
66708;DHT22;53622;0.000;0.000;2022-10-31T01:18:58;21.40;76.80
66708;DHT22;53622;0.000;0.000;2022-10-31T01:21:30;21.40;76.80
66708;DHT22;53622;0.000;0.000;2022-10-31T01:23:59;21.40;76.80
66708;DHT22;53622;0.000;0.000;2022-10-31T01:26:31;21.40;76.80
66708;DHT22;53622;0.000;0.000;2022-10-31T01:29:03;21.40;76.80
66708;DHT22;53622;0.000;0.000;2022-10-31T01:31:37;21.40;76.80
66708;DHT22;53622;0.000;0.000;2022-10-31T01:34:06;21.40;76.80
66708;DHT22;53622;0.000;0.000;2022-10-31T01:36:37;21.40;76.80
66708;DHT22;53622;0.000;0.000;2022-10-31T01:39:08;21.40;76.70
66708;DHT22;53622;0.000;0.000;2022-10-31T01:41:40;21.40;76.70
66708;DHT22;53622;0.000;0.000;2022-10-31T01:44:51;21.40;76.70
66708;DHT22;53622;0.000;0.000;2022-10-31T01:47:37;21.40;76.70
66708;DHT22;53622;0.000;0.000;2022-10-31T01:50:15;21.30;76.70
66708;DHT22;53622;0.000;0.000;2022-10-31T01:52:49;21.30;76.70
66708;DHT22;53622;0.000;0.000;2022-10-31T01:55:24;21.30;76.80
66708;DHT22;53622;0.000;0.000;2022-10-31T01:58:02;21.40;76.70
66708;DHT22;53622;0.000;0.000;2022-10-31T02:00:33;21.30;76.60
66708;DHT22;53622;0.000;0.000;2022-10-31T02:03:02;21.30;76.60
66708;DHT22;53622;0.000;0.000;2022-10-31T02:05:32;21.30;76.60
66708;DHT22;53622;0.000;0.000;2022-10-31T02:08:06;21.30;76.70
66708;DHT22;53622;0.000;0.000;2022-10-31T02:10:37;21.30;76.50
66708;DHT22;53622;0.000;0.000;2022-10-31T02:13:08;21.30;76.50
66708;DHT22;53622;0.000;0.000;2022-10-31T02:15:46;21.30;76.50
66708;DHT22;53622;0.000;0.000;2022-10-31T02:18:16;21.30;76.40
66708;DHT22;53622;0.000;0.000;2022-10-31T02:20:55;21.30;76.30
66708;DHT22;53622;0.000;0.000;2022-10-31T02:27:09;21.30;76.30
66708;DHT22;53622;0.000;0.000;2022-10-31T02:30:02;21.30;76.40
66708;DHT22;53622;0.000;0.000;2022-10-31T02:33:00;21.30;76.40
66708;DHT22;53622;0.000;0.000;2022-10-31T02:35:49;21.30;76.50
66708;DHT22;53622;0.000;0.000;2022-10-31T02:38:28;21.30;76.40
66708;DHT22;53622;0.000;0.000;2022-10-31T02:41:06;21.30;76.40
66708;DHT22;53622;0.000;0.000;2022-10-31T02:43:52;21.30;76.40
66708;DHT22;53622;0.000;0.000;2022-10-31T02:46:31;21.30;76.30
66708;DHT22;53622;0.000;0.000;2022-10-31T02:49:07;21.30;76.30
66708;DHT22;53622;0.000;0.000;2022-10-31T02:51:39;21.30;76.30
66708;DHT22;53622;0.000;0.000;2022-10-31T02:54:22;21.30;76.20
66708;DHT22;53622;0.000;0.000;2022-10-31T02:56:57;21.30;76.90
66708;DHT22;53622;0.000;0.000;2022-10-31T02:59:28;21.30;76.20
66708;DHT22;53622;0.000;0.000;2022-10-31T03:02:22;21.30;76.10
66708;DHT22;53622;0.000;0.000;2022-10-31T03:05:19;21.30;76.00
66708;DHT22;53622;0.000;0.000;2022-10-31T03:07:57;21.30;76.00
66708;DHT22;53622;0.000;0.000;2022-10-31T03:10:35;21.30;76.20
66708;DHT22;53622;0.000;0.000;2022-10-31T03:13:10;21.30;76.10
66708;DHT22;53622;0.000;0.000;2022-10-31T03:15:44;21.20;76.10
66708;DHT22;53622;0.000;0.000;2022-10-31T03:18:18;21.30;76.00
66708;DHT22;53622;0.000;0.000;2022-10-31T03:20:55;21.30;75.90
66708;DHT22;53622;0.000;0.000;2022-10-31T03:23:26;21.30;76.00
66708;DHT22;53622;0.000;0.000;2022-10-31T03:25:57;21.20;75.90
66708;DHT22;53622;0.000;0.000;2022-10-31T03:28:32;21.20;75.90
66708;DHT22;53622;0.000;0.000;2022-10-31T03:31:05;21.20;75.80
66708;DHT22;53622;0.000;0.000;2022-10-31T03:33:39;21.20;75.90
66708;DHT22;53622;0.000;0.000;2022-10-31T03:36:13;21.20;75.90
66708;DHT22;53622;0.000;0.000;2022-10-31T03:38:45;21.20;75.80
66708;DHT22;53622;0.000;0.000;2022-10-31T03:41:21;21.20;75.80
66708;DHT22;53622;0.000;0.000;2022-10-31T03:43:55;21.20;75.70
66708;DHT22;53622;0.000;0.000;2022-10-31T03:46:27;21.20;75.80
66708;DHT22;53622;0.000;0.000;2022-10-31T03:48:59;21.20;75.70
66708;DHT22;53622;0.000;0.000;2022-10-31T03:51:35;21.20;75.70
66708;DHT22;53622;0.000;0.000;2022-10-31T03:54:13;21.20;75.70
66708;DHT22;53622;0.000;0.000;2022-10-31T03:56:47;21.20;75.60
66708;DHT22;53622;0.000;0.000;2022-10-31T03:59:23;21.20;75.70
66708;DHT22;53622;0.000;0.000;2022-10-31T04:01:56;21.20;75.60
66708;DHT22;53622;0.000;0.000;2022-10-31T04:04:27;21.20;75.60
66708;DHT22;53622;0.000;0.000;2022-10-31T04:07:00;21.20;75.60
66708;DHT22;53622;0.000;0.000;2022-10-31T04:09:33;21.20;75.60
66708;DHT22;53622;0.000;0.000;2022-10-31T04:12:04;21.20;75.60
66708;DHT22;53622;0.000;0.000;2022-10-31T04:15:00;21.20;75.50
66708;DHT22;53622;0.000;0.000;2022-10-31T04:17:36;21.20;75.60
66708;DHT22;53622;0.000;0.000;2022-10-31T04:20:08;21.20;75.70
66708;DHT22;53622;0.000;0.000;2022-10-31T04:22:39;21.20;75.60
66708;DHT22;53622;0.000;0.000;2022-10-31T04:25:08;21.20;75.60
66708;DHT22;53622;0.000;0.000;2022-10-31T04:27:38;21.20;75.50
66708;DHT22;53622;0.000;0.000;2022-10-31T04:30:10;21.20;75.50
66708;DHT22;53622;0.000;0.000;2022-10-31T04:32:40;21.20;75.40
66708;DHT22;53622;0.000;0.000;2022-10-31T04:35:10;21.20;75.50
66708;DHT22;53622;0.000;0.000;2022-10-31T04:37:40;21.10;75.40
66708;DHT22;53622;0.000;0.000;2022-10-31T04:40:10;21.20;75.60
66708;DHT22;53622;0.000;0.000;2022-10-31T04:43:06;21.20;75.40
66708;DHT22;53622;0.000;0.000;2022-10-31T04:45:35;21.10;75.50
66708;DHT22;53622;0.000;0.000;2022-10-31T04:48:04;21.10;75.50
66708;DHT22;53622;0.000;0.000;2022-10-31T04:50:35;21.10;75.40
66708;DHT22;53622;0.000;0.000;2022-10-31T04:53:06;21.10;75.50
66708;DHT22;53622;0.000;0.000;2022-10-31T04:55:44;21.10;75.40
66708;DHT22;53622;0.000;0.000;2022-10-31T04:58:13;21.10;75.40
66708;DHT22;53622;0.000;0.000;2022-10-31T05:00:44;21.10;75.40
66708;DHT22;53622;0.000;0.000;2022-10-31T05:03:14;21.10;75.40
66708;DHT22;53622;0.000;0.000;2022-10-31T05:05:43;21.10;75.50
66708;DHT22;53622;0.000;0.000;2022-10-31T05:08:14;21.10;75.50
66708;DHT22;53622;0.000;0.000;2022-10-31T05:10:48;21.10;75.50
66708;DHT22;53622;0.000;0.000;2022-10-31T05:13:17;21.10;75.50
66708;DHT22;53622;0.000;0.000;2022-10-31T05:16:06;21.10;75.50
66708;DHT22;53622;0.000;0.000;2022-10-31T05:18:38;21.10;75.50
66708;DHT22;53622;0.000;0.000;2022-10-31T05:21:16;21.10;75.50
66708;DHT22;53622;0.000;0.000;2022-10-31T05:23:56;21.10;75.50
66708;DHT22;53622;0.000;0.000;2022-10-31T05:26:25;21.10;75.50
66708;DHT22;53622;0.000;0.000;2022-10-31T05:28:55;21.10;75.40
66708;DHT22;53622;0.000;0.000;2022-10-31T05:31:24;21.10;75.40
66708;DHT22;53622;0.000;0.000;2022-10-31T05:33:54;21.10;75.40
66708;DHT22;53622;0.000;0.000;2022-10-31T05:36:41;21.10;75.30
66708;DHT22;53622;0.000;0.000;2022-10-31T05:39:16;21.10;75.30
66708;DHT22;53622;0.000;0.000;2022-10-31T05:41:51;21.10;75.30
66708;DHT22;53622;0.000;0.000;2022-10-31T05:44:25;21.10;75.30
66708;DHT22;53622;0.000;0.000;2022-10-31T05:47:14;21.10;75.30
66708;DHT22;53622;0.000;0.000;2022-10-31T05:49:55;21.10;75.30
66708;DHT22;53622;0.000;0.000;2022-10-31T05:52:39;21.00;75.30
66708;DHT22;53622;0.000;0.000;2022-10-31T05:55:30;21.00;75.30
66708;DHT22;53622;0.000;0.000;2022-10-31T05:58:19;21.00;75.30
66708;DHT22;53622;0.000;0.000;2022-10-31T06:01:09;21.00;75.30
66708;DHT22;53622;0.000;0.000;2022-10-31T06:03:38;21.00;75.30
66708;DHT22;53622;0.000;0.000;2022-10-31T06:06:09;21.00;75.30
66708;DHT22;53622;0.000;0.000;2022-10-31T06:08:41;21.00;75.30
66708;DHT22;53622;0.000;0.000;2022-10-31T06:11:15;21.00;75.20
66708;DHT22;53622;0.000;0.000;2022-10-31T06:14:14;21.00;75.20
66708;DHT22;53622;0.000;0.000;2022-10-31T06:16:52;21.00;75.20
66708;DHT22;53622;0.000;0.000;2022-10-31T06:19:41;21.00;75.20
66708;DHT22;53622;0.000;0.000;2022-10-31T06:22:13;21.00;75.20
66708;DHT22;53622;0.000;0.000;2022-10-31T06:24:43;21.00;75.20
66708;DHT22;53622;0.000;0.000;2022-10-31T06:27:30;21.00;75.20
66708;DHT22;53622;0.000;0.000;2022-10-31T06:30:06;21.00;75.30
66708;DHT22;53622;0.000;0.000;2022-10-31T06:32:37;21.00;75.20
66708;DHT22;53622;0.000;0.000;2022-10-31T06:35:06;21.00;75.10
66708;DHT22;53622;0.000;0.000;2022-10-31T06:37:36;21.00;75.10
66708;DHT22;53622;0.000;0.000;2022-10-31T06:40:38;21.00;75.10
66708;DHT22;53622;0.000;0.000;2022-10-31T06:43:19;21.00;75.40
66708;DHT22;53622;0.000;0.000;2022-10-31T06:45:50;21.00;75.30
66708;DHT22;53622;0.000;0.000;2022-10-31T06:48:32;21.00;75.20
66708;DHT22;53622;0.000;0.000;2022-10-31T06:51:28;21.10;75.40
66708;DHT22;53622;0.000;0.000;2022-10-31T06:53:59;21.10;75.20
66708;DHT22;53622;0.000;0.000;2022-10-31T06:56:28;21.10;75.60
66708;DHT22;53622;0.000;0.000;2022-10-31T06:59:00;21.10;75.70
66708;DHT22;53622;0.000;0.000;2022-10-31T07:01:58;21.10;76.00
66708;DHT22;53622;0.000;0.000;2022-10-31T07:04:28;21.10;76.70
66708;DHT22;53622;0.000;0.000;2022-10-31T07:06:58;21.10;77.40
66708;DHT22;53622;0.000;0.000;2022-10-31T07:09:27;21.20;77.60
66708;DHT22;53622;0.000;0.000;2022-10-31T07:11:59;21.20;78.20
66708;DHT22;53622;0.000;0.000;2022-10-31T07:14:31;21.20;78.70
66708;DHT22;53622;0.000;0.000;2022-10-31T07:17:01;21.20;78.80
66708;DHT22;53622;0.000;0.000;2022-10-31T07:19:38;21.20;78.80
66708;DHT22;53622;0.000;0.000;2022-10-31T07:22:08;21.20;78.90
66708;DHT22;53622;0.000;0.000;2022-10-31T07:24:39;21.20;78.80
66708;DHT22;53622;0.000;0.000;2022-10-31T07:27:35;21.20;78.70
66708;DHT22;53622;0.000;0.000;2022-10-31T07:30:13;21.20;77.70
66708;DHT22;53622;0.000;0.000;2022-10-31T07:32:43;21.20;78.30
66708;DHT22;53622;0.000;0.000;2022-10-31T07:35:17;21.20;78.20
66708;DHT22;53622;0.000;0.000;2022-10-31T07:37:48;21.20;77.70
66708;DHT22;53622;0.000;0.000;2022-10-31T07:40:19;21.20;77.60
66708;DHT22;53622;0.000;0.000;2022-10-31T07:42:49;21.20;77.50
66708;DHT22;53622;0.000;0.000;2022-10-31T07:45:49;21.20;77.40
66708;DHT22;53622;0.000;0.000;2022-10-31T07:48:37;21.20;77.20
66708;DHT22;53622;0.000;0.000;2022-10-31T07:51:25;21.20;77.20
66708;DHT22;53622;0.000;0.000;2022-10-31T07:54:29;21.20;77.30
66708;DHT22;53622;0.000;0.000;2022-10-31T07:56:59;21.20;77.30
66708;DHT22;53622;0.000;0.000;2022-10-31T07:59:29;21.20;77.20
66708;DHT22;53622;0.000;0.000;2022-10-31T08:02:00;21.20;77.10
66708;DHT22;53622;0.000;0.000;2022-10-31T08:04:32;21.20;77.00
66708;DHT22;53622;0.000;0.000;2022-10-31T08:07:24;21.20;76.90
66708;DHT22;53622;0.000;0.000;2022-10-31T08:09:59;21.20;76.90
66708;DHT22;53622;0.000;0.000;2022-10-31T08:12:31;21.20;76.80
66708;DHT22;53622;0.000;0.000;2022-10-31T08:15:00;21.20;76.80
66708;DHT22;53622;0.000;0.000;2022-10-31T08:17:35;21.20;76.70
66708;DHT22;53622;0.000;0.000;2022-10-31T08:20:05;21.20;76.70
66708;DHT22;53622;0.000;0.000;2022-10-31T08:22:53;21.20;76.60
66708;DHT22;53622;0.000;0.000;2022-10-31T08:25:23;21.20;76.60
66708;DHT22;53622;0.000;0.000;2022-10-31T08:27:54;21.20;76.60
66708;DHT22;53622;0.000;0.000;2022-10-31T08:30:25;21.20;76.50
66708;DHT22;53622;0.000;0.000;2022-10-31T08:33:17;21.20;76.40
66708;DHT22;53622;0.000;0.000;2022-10-31T08:36:06;21.20;76.30
66708;DHT22;53622;0.000;0.000;2022-10-31T08:38:50;21.20;76.40
66708;DHT22;53622;0.000;0.000;2022-10-31T08:41:27;21.20;76.30
66708;DHT22;53622;0.000;0.000;2022-10-31T08:43:58;21.20;76.20
66708;DHT22;53622;0.000;0.000;2022-10-31T08:46:27;21.20;76.20
66708;DHT22;53622;0.000;0.000;2022-10-31T08:48:58;21.30;76.20
66708;DHT22;53622;0.000;0.000;2022-10-31T08:51:28;21.30;76.10
66708;DHT22;53622;0.000;0.000;2022-10-31T08:53:57;21.30;76.10
66708;DHT22;53622;0.000;0.000;2022-10-31T08:56:32;21.30;76.00
66708;DHT22;53622;0.000;0.000;2022-10-31T08:59:05;21.30;76.00
66708;DHT22;53622;0.000;0.000;2022-10-31T09:01:53;21.30;75.90
66708;DHT22;53622;0.000;0.000;2022-10-31T09:04:25;21.30;75.90
66708;DHT22;53622;0.000;0.000;2022-10-31T09:06:55;21.30;76.00
66708;DHT22;53622;0.000;0.000;2022-10-31T09:09:44;21.30;76.00
66708;DHT22;53622;0.000;0.000;2022-10-31T09:12:13;21.30;76.10
66708;DHT22;53622;0.000;0.000;2022-10-31T09:15:01;21.30;76.30
66708;DHT22;53622;0.000;0.000;2022-10-31T09:17:51;21.30;76.50
66708;DHT22;53622;0.000;0.000;2022-10-31T09:20:42;21.30;76.80
66708;DHT22;53622;0.000;0.000;2022-10-31T09:23:14;21.30;77.40
66708;DHT22;53622;0.000;0.000;2022-10-31T09:25:44;21.30;78.00
66708;DHT22;53622;0.000;0.000;2022-10-31T09:28:33;21.30;78.10
66708;DHT22;53622;0.000;0.000;2022-10-31T09:31:11;21.30;78.90
66708;DHT22;53622;0.000;0.000;2022-10-31T09:33:46;21.30;79.20
66708;DHT22;53622;0.000;0.000;2022-10-31T09:36:43;21.30;79.30
66708;DHT22;53622;0.000;0.000;2022-10-31T09:39:18;21.30;78.90
66708;DHT22;53622;0.000;0.000;2022-10-31T09:42:38;21.30;78.50
66708;DHT22;53622;0.000;0.000;2022-10-31T09:45:22;21.30;78.30
66708;DHT22;53622;0.000;0.000;2022-10-31T09:48:09;21.30;78.50
66708;DHT22;53622;0.000;0.000;2022-10-31T09:51:05;21.30;78.50
66708;DHT22;53622;0.000;0.000;2022-10-31T09:53:46;21.30;78.60
66708;DHT22;53622;0.000;0.000;2022-10-31T09:56:22;21.30;78.80
66708;DHT22;53622;0.000;0.000;2022-10-31T09:58:57;21.30;78.80
66708;DHT22;53622;0.000;0.000;2022-10-31T10:01:45;21.30;79.00
66708;DHT22;53622;0.000;0.000;2022-10-31T10:04:33;21.40;78.90
66708;DHT22;53622;0.000;0.000;2022-10-31T10:07:40;21.40;79.00
66708;DHT22;53622;0.000;0.000;2022-10-31T10:10:47;21.40;79.10
66708;DHT22;53622;0.000;0.000;2022-10-31T10:13:46;21.40;79.00
66708;DHT22;53622;0.000;0.000;2022-10-31T10:16:40;21.50;79.10
66708;DHT22;53622;0.000;0.000;2022-10-31T10:19:23;21.50;79.10
66708;DHT22;53622;0.000;0.000;2022-10-31T10:22:00;21.50;79.20
66708;DHT22;53622;0.000;0.000;2022-10-31T10:24:44;21.50;79.20
66708;DHT22;53622;0.000;0.000;2022-10-31T10:27:22;21.50;79.10
66708;DHT22;53622;0.000;0.000;2022-10-31T10:30:00;21.60;79.20
66708;DHT22;53622;0.000;0.000;2022-10-31T10:32:37;21.60;79.30
66708;DHT22;53622;0.000;0.000;2022-10-31T10:35:14;21.50;79.30
66708;DHT22;53622;0.000;0.000;2022-10-31T10:37:45;21.60;79.40
66708;DHT22;53622;0.000;0.000;2022-10-31T10:40:17;21.60;79.40
66708;DHT22;53622;0.000;0.000;2022-10-31T10:42:56;21.60;79.20
66708;DHT22;53622;0.000;0.000;2022-10-31T10:45:46;21.60;79.30
66708;DHT22;53622;0.000;0.000;2022-10-31T10:48:44;21.60;79.80
66708;DHT22;53622;0.000;0.000;2022-10-31T10:51:27;21.70;80.30
66708;DHT22;53622;0.000;0.000;2022-10-31T10:54:42;21.70;80.40
66708;DHT22;53622;0.000;0.000;2022-10-31T10:57:36;21.70;80.50
66708;DHT22;53622;0.000;0.000;2022-10-31T11:00:17;21.70;80.30
66708;DHT22;53622;0.000;0.000;2022-10-31T11:02:47;21.70;80.50
66708;DHT22;53622;0.000;0.000;2022-10-31T11:05:24;21.80;80.60
66708;DHT22;53622;0.000;0.000;2022-10-31T11:07:53;21.80;81.00
66708;DHT22;53622;0.000;0.000;2022-10-31T11:10:23;21.80;81.10
66708;DHT22;53622;0.000;0.000;2022-10-31T11:13:06;21.80;81.10
66708;DHT22;53622;0.000;0.000;2022-10-31T11:15:50;21.80;81.10
66708;DHT22;53622;0.000;0.000;2022-10-31T11:18:22;21.90;81.00
66708;DHT22;53622;0.000;0.000;2022-10-31T11:20:59;21.80;80.80
66708;DHT22;53622;0.000;0.000;2022-10-31T11:23:29;21.90;80.60
66708;DHT22;53622;0.000;0.000;2022-10-31T11:26:00;21.90;80.40
66708;DHT22;53622;0.000;0.000;2022-10-31T11:28:31;21.90;80.00
66708;DHT22;53622;0.000;0.000;2022-10-31T11:31:08;21.90;79.90
66708;DHT22;53622;0.000;0.000;2022-10-31T11:33:47;21.90;79.80
66708;DHT22;53622;0.000;0.000;2022-10-31T11:36:21;21.90;79.40
66708;DHT22;53622;0.000;0.000;2022-10-31T11:38:52;21.90;79.10
66708;DHT22;53622;0.000;0.000;2022-10-31T11:41:26;21.90;79.10
66708;DHT22;53622;0.000;0.000;2022-10-31T11:43:58;21.90;79.20
66708;DHT22;53622;0.000;0.000;2022-10-31T11:46:35;21.90;79.10
66708;DHT22;53622;0.000;0.000;2022-10-31T11:49:06;22.00;79.20
66708;DHT22;53622;0.000;0.000;2022-10-31T11:51:40;21.90;79.20
66708;DHT22;53622;0.000;0.000;2022-10-31T11:54:20;22.00;79.20
66708;DHT22;53622;0.000;0.000;2022-10-31T11:56:49;22.00;79.50
66708;DHT22;53622;0.000;0.000;2022-10-31T11:59:24;22.00;80.00
66708;DHT22;53622;0.000;0.000;2022-10-31T12:01:57;22.00;79.90
66708;DHT22;53622;0.000;0.000;2022-10-31T12:04:32;22.00;79.90
66708;DHT22;53622;0.000;0.000;2022-10-31T12:07:04;22.00;80.00
66708;DHT22;53622;0.000;0.000;2022-10-31T12:09:35;22.00;80.20
66708;DHT22;53622;0.000;0.000;2022-10-31T12:12:26;22.00;80.30
66708;DHT22;53622;0.000;0.000;2022-10-31T12:15:05;22.00;80.40
66708;DHT22;53622;0.000;0.000;2022-10-31T12:17:43;22.00;81.00
66708;DHT22;53622;0.000;0.000;2022-10-31T12:20:23;22.00;81.20
66708;DHT22;53622;0.000;0.000;2022-10-31T12:23:01;22.10;81.30
66708;DHT22;53622;0.000;0.000;2022-10-31T12:25:39;22.10;81.20
66708;DHT22;53622;0.000;0.000;2022-10-31T12:28:28;22.10;81.10
66708;DHT22;53622;0.000;0.000;2022-10-31T12:31:21;22.10;81.10
66708;DHT22;53622;0.000;0.000;2022-10-31T12:34:03;22.10;81.10
66708;DHT22;53622;0.000;0.000;2022-10-31T12:36:46;22.10;81.10
66708;DHT22;53622;0.000;0.000;2022-10-31T12:39:24;22.20;81.10
66708;DHT22;53622;0.000;0.000;2022-10-31T12:41:59;22.20;80.80
66708;DHT22;53622;0.000;0.000;2022-10-31T12:44:57;22.20;80.30
66708;DHT22;53622;0.000;0.000;2022-10-31T12:47:47;22.20;79.80
66708;DHT22;53622;0.000;0.000;2022-10-31T12:50:33;22.20;79.60
66708;DHT22;53622;0.000;0.000;2022-10-31T12:53:16;22.20;79.40
66708;DHT22;53622;0.000;0.000;2022-10-31T12:55:59;22.20;79.40
66708;DHT22;53622;0.000;0.000;2022-10-31T12:58:33;22.30;79.30
66708;DHT22;53622;0.000;0.000;2022-10-31T13:01:09;22.20;79.20
66708;DHT22;53622;0.000;0.000;2022-10-31T13:03:46;22.20;79.30
66708;DHT22;53622;0.000;0.000;2022-10-31T13:06:20;22.20;79.20
66708;DHT22;53622;0.000;0.000;2022-10-31T13:08:53;22.30;79.10
66708;DHT22;53622;0.000;0.000;2022-10-31T13:11:25;22.30;78.90
66708;DHT22;53622;0.000;0.000;2022-10-31T13:14:01;22.30;78.60
66708;DHT22;53622;0.000;0.000;2022-10-31T13:16:35;22.30;78.40
66708;DHT22;53622;0.000;0.000;2022-10-31T13:19:22;22.30;78.30
66708;DHT22;53622;0.000;0.000;2022-10-31T13:21:58;22.30;78.10
66708;DHT22;53622;0.000;0.000;2022-10-31T13:24:34;22.30;78.70
66708;DHT22;53622;0.000;0.000;2022-10-31T13:27:13;22.30;77.70
66708;DHT22;53622;0.000;0.000;2022-10-31T13:29:49;22.30;77.60
66708;DHT22;53622;0.000;0.000;2022-10-31T13:32:23;22.30;77.10
66708;DHT22;53622;0.000;0.000;2022-10-31T13:34:56;22.30;77.00
66708;DHT22;53622;0.000;0.000;2022-10-31T13:37:32;22.30;77.00
66708;DHT22;53622;0.000;0.000;2022-10-31T13:40:12;22.30;77.30
66708;DHT22;53622;0.000;0.000;2022-10-31T13:42:52;22.30;77.30
66708;DHT22;53622;0.000;0.000;2022-10-31T13:45:25;22.30;77.30
66708;DHT22;53622;0.000;0.000;2022-10-31T13:47:56;22.30;77.10
66708;DHT22;53622;0.000;0.000;2022-10-31T13:50:28;22.30;77.10
66708;DHT22;53622;0.000;0.000;2022-10-31T13:53:13;22.30;76.60
66708;DHT22;53622;0.000;0.000;2022-10-31T13:55:44;22.30;76.50
66708;DHT22;53622;0.000;0.000;2022-10-31T13:58:25;22.30;76.50
66708;DHT22;53622;0.000;0.000;2022-10-31T14:01:20;22.30;76.50
66708;DHT22;53622;0.000;0.000;2022-10-31T14:03:59;22.30;75.80
66708;DHT22;53622;0.000;0.000;2022-10-31T14:06:54;22.30;75.90
66708;DHT22;53622;0.000;0.000;2022-10-31T14:09:30;22.30;76.10
66708;DHT22;53622;0.000;0.000;2022-10-31T14:12:04;22.30;78.00
66708;DHT22;53622;0.000;0.000;2022-10-31T14:14:44;22.50;79.30
66708;DHT22;53622;0.000;0.000;2022-10-31T14:17:19;22.60;79.30
66708;DHT22;53622;0.000;0.000;2022-10-31T14:23:32;22.50;79.50
66708;DHT22;53622;0.000;0.000;2022-10-31T14:26:32;22.50;79.60
66708;DHT22;53622;0.000;0.000;2022-10-31T14:29:25;22.50;79.50
66708;DHT22;53622;0.000;0.000;2022-10-31T14:31:59;22.50;79.40
66708;DHT22;53622;0.000;0.000;2022-10-31T14:34:33;22.50;79.60
66708;DHT22;53622;0.000;0.000;2022-10-31T14:37:28;22.50;78.90
66708;DHT22;53622;0.000;0.000;2022-10-31T14:40:26;22.50;78.50
66708;DHT22;53622;0.000;0.000;2022-10-31T14:43:28;22.50;77.50
66708;DHT22;53622;0.000;0.000;2022-10-31T14:46:00;22.50;77.20
66708;DHT22;53622;0.000;0.000;2022-10-31T14:51:31;22.50;77.70
66708;DHT22;53622;0.000;0.000;2022-10-31T14:54:06;22.50;77.70
66708;DHT22;53622;0.000;0.000;2022-10-31T14:56:37;22.50;78.50
66708;DHT22;53622;0.000;0.000;2022-10-31T14:59:11;22.60;78.60
66708;DHT22;53622;0.000;0.000;2022-10-31T15:01:56;22.60;77.70
66708;DHT22;53622;0.000;0.000;2022-10-31T15:04:28;22.60;77.50
66708;DHT22;53622;0.000;0.000;2022-10-31T15:07:04;22.60;76.90
66708;DHT22;53622;0.000;0.000;2022-10-31T15:09:35;22.60;76.90
66708;DHT22;53622;0.000;0.000;2022-10-31T15:12:23;22.60;76.70
66708;DHT22;53622;0.000;0.000;2022-10-31T15:14:54;22.60;76.60
66708;DHT22;53622;0.000;0.000;2022-10-31T15:17:25;22.60;76.40
66708;DHT22;53622;0.000;0.000;2022-10-31T15:19:54;22.60;76.10
66708;DHT22;53622;0.000;0.000;2022-10-31T15:22:26;22.60;75.40
66708;DHT22;53622;0.000;0.000;2022-10-31T15:24:58;22.60;75.40
66708;DHT22;53622;0.000;0.000;2022-10-31T15:27:28;22.60;75.30
66708;DHT22;53622;0.000;0.000;2022-10-31T15:29:59;22.60;75.60
66708;DHT22;53622;0.000;0.000;2022-10-31T15:32:29;22.60;74.90
66708;DHT22;53622;0.000;0.000;2022-10-31T15:34:58;22.60;75.00
66708;DHT22;53622;0.000;0.000;2022-10-31T15:37:27;22.60;75.30
66708;DHT22;53622;0.000;0.000;2022-10-31T15:40:06;22.60;75.10
66708;DHT22;53622;0.000;0.000;2022-10-31T15:42:40;22.60;75.40
66708;DHT22;53622;0.000;0.000;2022-10-31T15:45:19;22.60;75.70
66708;DHT22;53622;0.000;0.000;2022-10-31T15:47:55;22.60;75.80
66708;DHT22;53622;0.000;0.000;2022-10-31T15:50:34;22.60;76.00
66708;DHT22;53622;0.000;0.000;2022-10-31T15:53:05;22.60;76.00
66708;DHT22;53622;0.000;0.000;2022-10-31T15:55:44;22.60;75.90
66708;DHT22;53622;0.000;0.000;2022-10-31T15:58:17;22.60;75.20
66708;DHT22;53622;0.000;0.000;2022-10-31T16:00:59;22.60;74.10
66708;DHT22;53622;0.000;0.000;2022-10-31T16:03:31;22.60;75.30
66708;DHT22;53622;0.000;0.000;2022-10-31T16:06:02;22.50;75.20
66708;DHT22;53622;0.000;0.000;2022-10-31T16:08:34;22.50;75.30
66708;DHT22;53622;0.000;0.000;2022-10-31T16:11:18;22.50;75.20
66708;DHT22;53622;0.000;0.000;2022-10-31T16:13:56;22.60;75.30
66708;DHT22;53622;0.000;0.000;2022-10-31T16:16:28;22.60;75.80
66708;DHT22;53622;0.000;0.000;2022-10-31T16:19:04;22.60;76.20
66708;DHT22;53622;0.000;0.000;2022-10-31T16:21:37;22.60;73.70
66708;DHT22;53622;0.000;0.000;2022-10-31T16:24:16;22.50;74.30
66708;DHT22;53622;0.000;0.000;2022-10-31T16:26:49;22.50;74.60
66708;DHT22;53622;0.000;0.000;2022-10-31T16:29:27;22.50;74.20
66708;DHT22;53622;0.000;0.000;2022-10-31T16:31:59;22.50;73.80
66708;DHT22;53622;0.000;0.000;2022-10-31T16:34:28;22.40;71.40
66708;DHT22;53622;0.000;0.000;2022-10-31T16:36:57;22.50;72.70
66708;DHT22;53622;0.000;0.000;2022-10-31T16:39:26;22.40;73.40
66708;DHT22;53622;0.000;0.000;2022-10-31T16:41:56;22.40;73.80
66708;DHT22;53622;0.000;0.000;2022-10-31T16:44:26;22.40;73.80
66708;DHT22;53622;0.000;0.000;2022-10-31T16:47:12;22.40;74.00
66708;DHT22;53622;0.000;0.000;2022-10-31T16:49:42;22.40;73.90
66708;DHT22;53622;0.000;0.000;2022-10-31T16:52:12;22.40;74.00
66708;DHT22;53622;0.000;0.000;2022-10-31T16:54:41;22.40;74.00
66708;DHT22;53622;0.000;0.000;2022-10-31T16:57:14;22.40;73.90